Time;durP1;ratioP1;P1;durP2;ratioP2;P2;SDS_P1;SDS_P2;PMS_P1;PMS_P2;Temp;Humidity;BMP_temperature;BMP_pressure;BME280_temperature;BME280_humidity;BME280_pressure;Samples;Min_cycle;Max_cycle;Signal;HPM_P1;HPM_P2
2022/10/11 00:00:23;;;;;;;15.27;13.80;;;15.30;97.50;;;;;;5029387;28;20517;-79
2022/10/11 00:02:50;;;;;;;15.30;14.10;;;15.30;97.20;;;;;;5029355;28;20463;-79
2022/10/11 00:05:17;;;;;;;14.70;13.63;;;15.30;97.20;;;;;;5028259;28;20815;-78
2022/10/11 00:07:44;;;;;;;15.43;13.83;;;15.20;97.60;;;;;;5028096;28;20460;-79
2022/10/11 00:10:11;;;;;;;15.53;13.90;;;15.20;97.50;;;;;;5028051;28;20514;-78
2022/10/11 00:12:39;;;;;;;16.40;14.17;;;15.10;97.60;;;;;;5029633;28;21072;-78
2022/10/11 00:15:08;;;;;;;15.43;14.00;;;15.10;97.60;;;;;;5028933;28;21008;-78
2022/10/11 00:17:35;;;;;;;15.27;13.80;;;15.00;97.70;;;;;;5027568;28;20547;-79
2022/10/11 00:20:02;;;;;;;15.20;14.10;;;15.00;97.70;;;;;;5026981;28;20768;-78
2022/10/11 00:22:29;;;;;;;16.67;15.07;;;15.00;97.70;;;;;;5028726;28;20467;-78
2022/10/11 00:24:57;;;;;;;15.07;13.63;;;15.00;97.90;;;;;;5030605;28;20530;-78
2022/10/11 00:27:24;;;;;;;15.53;14.40;;;15.00;97.80;;;;;;5029130;28;20454;-78
2022/10/11 00:29:53;;;;;;;15.17;13.77;;;15.00;97.70;;;;;;5028855;28;20459;-78
2022/10/11 00:32:20;;;;;;;15.23;13.93;;;15.10;97.50;;;;;;5027394;28;20799;-78
2022/10/11 00:34:47;;;;;;;14.97;13.73;;;15.00;97.40;;;;;;5028184;28;20476;-78
2022/10/11 00:37:14;;;;;;;15.83;14.50;;;14.90;97.80;;;;;;5024534;28;20550;-78
2022/10/11 00:39:40;;;;;;;15.33;13.93;;;14.80;98.10;;;;;;5027185;28;20455;-78
2022/10/11 00:42:12;;;;;;;15.33;13.93;;;14.80;98.50;;;;;;5026522;28;20464;-78
2022/10/11 00:44:40;;;;;;;15.57;13.90;;;14.70;98.40;;;;;;5027105;28;20574;-78
2022/10/11 00:47:13;;;;;;;14.57;13.10;;;14.80;98.40;;;;;;5027561;28;20534;-78
2022/10/11 00:49:43;;;;;;;17.97;13.80;;;14.70;98.30;;;;;;5020253;28;21041;-78
2022/10/11 00:52:17;;;;;;;15.07;13.87;;;14.80;98.30;;;;;;5023907;28;20464;-78
2022/10/11 00:54:46;;;;;;;15.77;13.60;;;14.80;98.30;;;;;;5023507;28;20475;-78
2022/10/11 00:57:19;;;;;;;15.53;13.93;;;14.70;98.20;;;;;;5026825;28;20462;-78
2022/10/11 00:59:51;;;;;;;14.40;13.50;;;14.60;98.40;;;;;;5027130;28;20466;-78
2022/10/11 01:02:20;;;;;;;16.40;14.90;;;14.60;98.40;;;;;;5025499;28;20456;-78
2022/10/11 01:04:47;;;;;;;15.73;14.40;;;14.70;97.90;;;;;;5027605;28;20510;-78
2022/10/11 01:07:14;;;;;;;15.07;13.83;;;14.60;97.80;;;;;;5024395;28;20891;-78
2022/10/11 01:09:41;;;;;;;15.93;14.40;;;14.50;98.00;;;;;;5028947;28;20530;-78
2022/10/11 01:12:17;;;;;;;15.40;14.23;;;14.40;98.30;;;;;;5024448;28;21024;-78
2022/10/11 01:15:01;;;;;;;15.83;14.10;;;14.40;98.50;;;;;;5026654;28;20467;-78
2022/10/11 01:17:40;;;;;;;15.20;13.70;;;14.40;98.60;;;;;;5027331;28;20452;-78
2022/10/11 01:20:25;;;;;;;14.47;13.37;;;14.30;98.80;;;;;;5026411;28;20443;-78
2022/10/11 01:23:34;;;;;;;15.50;14.30;;;14.30;98.80;;;;;;5018772;28;20460;-78
2022/10/11 01:26:31;;;;;;;16.23;14.77;;;14.30;98.80;;;;;;5026413;28;21768;-78
2022/10/11 01:29:10;;;;;;;15.27;14.10;;;14.30;98.70;;;;;;5012196;28;20444;-78
2022/10/11 01:31:44;;;;;;;14.73;13.30;;;14.30;98.70;;;;;;5025703;28;21034;-78
2022/10/11 01:34:17;;;;;;;15.60;14.17;;;14.20;98.70;;;;;;5026025;28;20474;-78
2022/10/11 01:36:49;;;;;;;16.03;14.73;;;14.10;98.80;;;;;;5025176;28;20463;-78
2022/10/11 01:39:24;;;;;;;15.27;13.87;;;14.10;98.90;;;;;;5026904;28;20490;-78
2022/10/11 01:41:54;;;;;;;14.80;13.20;;;14.10;98.90;;;;;;5022552;28;20456;-78
2022/10/11 01:44:23;;;;;;;13.80;12.67;;;14.10;98.90;;;;;;5027707;28;20468;-78
2022/10/11 01:46:52;;;;;;;14.30;13.07;;;14.10;98.70;;;;;;5027285;28;20451;-78
2022/10/11 01:49:20;;;;;;;15.97;13.97;;;14.00;98.70;;;;;;5028485;28;20456;-78
2022/10/11 01:51:50;;;;;;;17.53;13.90;;;14.00;98.70;;;;;;5025411;28;20455;-78
2022/10/11 01:54:36;;;;;;;15.27;14.27;;;14.00;98.70;;;;;;5026136;28;20468;-78
2022/10/11 01:57:41;;;;;;;14.77;13.37;;;14.00;98.80;;;;;;5026752;28;20475;-78
2022/10/11 02:00:15;;;;;;;14.33;13.10;;;13.90;99.00;;;;;;5026409;28;20560;-78
2022/10/11 02:03:15;;;;;;;13.97;12.73;;;13.90;98.90;;;;;;5018893;28;20462;-78
2022/10/11 02:05:49;;;;;;;14.57;13.37;;;13.90;99.00;;;;;;5018464;28;20482;-78
2022/10/11 02:08:24;;;;;;;16.53;15.23;;;13.90;98.80;;;;;;5030440;28;20531;-78
2022/10/11 02:10:55;;;;;;;14.50;13.20;;;13.90;99.00;;;;;;5025700;28;20768;-78
2022/10/11 02:13:27;;;;;;;14.07;12.90;;;13.90;99.20;;;;;;5031036;28;20581;-78
2022/10/11 02:15:58;;;;;;;17.00;14.37;;;13.90;99.10;;;;;;5029495;28;20491;-78
2022/10/11 02:18:31;;;;;;;20.23;18.97;;;13.90;99.20;;;;;;5027488;28;20546;-77
2022/10/11 02:21:00;;;;;;;16.50;14.87;;;13.90;99.20;;;;;;5031677;28;20884;-78
2022/10/11 02:23:31;;;;;;;15.53;14.20;;;13.90;99.00;;;;;;5029217;28;20510;-78
2022/10/11 02:25:58;;;;;;;17.53;16.53;;;13.90;99.10;;;;;;5028389;28;20551;-78
2022/10/11 02:28:30;;;;;;;16.00;14.40;;;13.90;98.80;;;;;;5028764;28;20462;-78
2022/10/11 02:31:00;;;;;;;14.50;13.50;;;14.00;98.60;;;;;;5025065;28;20460;-78
2022/10/11 02:33:33;;;;;;;17.10;15.80;;;14.00;98.30;;;;;;5029400;28;20476;-78
2022/10/11 02:36:05;;;;;;;15.13;13.43;;;14.00;98.30;;;;;;5026686;28;20464;-78
2022/10/11 02:38:37;;;;;;;13.43;12.20;;;14.00;98.30;;;;;;5027738;28;20466;-78
2022/10/11 02:41:12;;;;;;;14.63;13.30;;;13.90;98.30;;;;;;5029913;28;20460;-78
2022/10/11 02:43:45;;;;;;;14.53;13.33;;;13.90;98.30;;;;;;5029223;28;20479;-78
2022/10/11 02:46:13;;;;;;;14.70;13.70;;;14.00;98.50;;;;;;5029818;28;20488;-79
2022/10/11 02:48:41;;;;;;;14.77;13.47;;;14.00;98.50;;;;;;5030321;28;20452;-78
2022/10/11 02:51:12;;;;;;;15.43;14.10;;;14.00;98.50;;;;;;5029800;28;20483;-79
2022/10/11 02:53:39;;;;;;;15.20;13.90;;;14.10;98.60;;;;;;5038012;28;20475;-78
2022/10/11 02:56:06;;;;;;;26.40;24.30;;;14.20;98.40;;;;;;5039704;28;20479;-78
2022/10/11 02:58:33;;;;;;;16.63;15.10;;;14.20;98.40;;;;;;5038066;28;20958;-79
2022/10/11 03:01:00;;;;;;;15.80;14.50;;;14.30;98.30;;;;;;5033127;28;20483;-78
2022/10/11 03:03:27;;;;;;;17.83;16.00;;;14.30;98.30;;;;;;5029874;28;20472;-78
2022/10/11 03:06:00;;;;;;;17.50;15.67;;;14.50;98.10;;;;;;5028769;28;20816;-79
2022/10/11 03:08:27;;;;;;;25.43;23.50;;;14.50;97.50;;;;;;5030510;28;20452;-78
2022/10/11 03:10:54;;;;;;;16.43;14.83;;;14.50;97.50;;;;;;5029605;28;20456;-78
2022/10/11 03:13:21;;;;;;;24.53;22.27;;;14.50;97.40;;;;;;5029724;28;20452;-78
2022/10/11 03:15:49;;;;;;;24.43;22.20;;;14.50;97.40;;;;;;5029063;28;20559;-78
2022/10/11 03:18:16;;;;;;;17.10;15.40;;;14.50;97.50;;;;;;5029286;28;20873;-78
2022/10/11 03:20:44;;;;;;;17.23;15.63;;;14.50;97.50;;;;;;5028954;28;20462;-78
2022/10/11 03:23:14;;;;;;;20.03;16.70;;;14.50;97.70;;;;;;5028726;28;20891;-78
2022/10/11 03:25:41;;;;;;;23.17;21.10;;;14.50;97.70;;;;;;5029314;28;20803;-78
2022/10/11 03:28:08;;;;;;;23.50;21.77;;;14.60;97.60;;;;;;5029500;28;20492;-78
2022/10/11 03:30:34;;;;;;;20.07;18.47;;;14.60;97.30;;;;;;5026541;28;20463;-78
2022/10/11 03:33:01;;;;;;;15.60;14.43;;;14.60;97.20;;;;;;5029329;28;20482;-78
2022/10/11 03:35:28;;;;;;;14.47;13.40;;;14.60;97.10;;;;;;5027929;28;20603;-78
2022/10/11 03:37:55;;;;;;;15.87;14.57;;;14.60;97.10;;;;;;5026658;28;20489;-78
2022/10/11 03:40:23;;;;;;;17.90;16.50;;;14.50;97.10;;;;;;5020581;28;20543;-79
2022/10/11 03:42:50;;;;;;;25.97;23.30;;;14.50;97.20;;;;;;5023509;28;20575;-78
2022/10/11 03:45:17;;;;;;;26.23;24.50;;;14.50;97.30;;;;;;5035294;28;20481;-78
2022/10/11 03:47:44;;;;;;;18.13;15.70;;;14.50;97.30;;;;;;5030951;28;20535;-78
2022/10/11 03:50:11;;;;;;;16.73;15.20;;;14.50;97.40;;;;;;5022953;28;20544;-78
2022/10/11 03:52:38;;;;;;;15.73;14.53;;;14.50;97.40;;;;;;5030004;28;20456;-76
2022/10/11 03:55:06;;;;;;;16.63;15.03;;;14.50;97.40;;;;;;5028789;28;20490;-78
2022/10/11 03:57:34;;;;;;;17.00;15.57;;;14.50;97.40;;;;;;5029967;28;20471;-78
2022/10/11 04:00:01;;;;;;;18.70;17.13;;;14.50;97.40;;;;;;5033006;28;20499;-78
2022/10/11 04:02:28;;;;;;;18.67;17.43;;;14.50;97.30;;;;;;5029051;28;20459;-78
2022/10/11 04:04:55;;;;;;;21.63;20.00;;;14.50;97.10;;;;;;5028996;28;20842;-78
2022/10/11 04:07:22;;;;;;;20.03;18.63;;;14.50;97.20;;;;;;5029007;28;20491;-78
2022/10/11 04:09:49;;;;;;;17.27;14.50;;;14.50;97.20;;;;;;5028010;28;20459;-79
2022/10/11 04:12:15;;;;;;;31.57;29.50;;;14.50;97.30;;;;;;5019622;28;20460;-78
2022/10/11 04:14:44;;;;;;;20.23;18.10;;;14.50;97.20;;;;;;5025260;28;20479;-79
2022/10/11 04:17:11;;;;;;;19.47;17.60;;;14.50;97.20;;;;;;5026645;28;20480;-78
2022/10/11 04:19:37;;;;;;;20.13;18.53;;;14.50;97.20;;;;;;5019434;28;20452;-78
2022/10/11 04:22:05;;;;;;;19.97;18.10;;;14.50;97.40;;;;;;5028238;28;20946;-78
2022/10/11 04:24:31;;;;;;;36.23;33.23;;;14.50;97.40;;;;;;5026838;28;20973;-78
2022/10/11 04:26:58;;;;;;;27.77;25.60;;;14.60;97.50;;;;;;5026356;28;20467;-78
2022/10/11 04:29:25;;;;;;;20.60;18.50;;;14.60;97.40;;;;;;5028162;28;20460;-78
2022/10/11 04:31:54;;;;;;;25.93;23.97;;;14.60;97.40;;;;;;5024868;28;20575;-78
2022/10/11 04:34:20;;;;;;;23.53;20.37;;;14.60;97.20;;;;;;5016978;28;20562;-78
2022/10/11 04:36:47;;;;;;;21.90;19.87;;;14.60;97.30;;;;;;5017683;28;20475;-79
2022/10/11 04:39:14;;;;;;;28.30;25.33;;;14.60;97.30;;;;;;5026585;28;20544;-78
2022/10/11 04:41:41;;;;;;;29.23;26.20;;;14.80;97.30;;;;;;5019026;28;20472;-78
2022/10/11 04:44:08;;;;;;;27.93;25.40;;;14.80;96.60;;;;;;5021670;28;20570;-78
2022/10/11 04:46:35;;;;;;;29.13;26.20;;;14.80;96.80;;;;;;5024387;28;20458;-78
2022/10/11 04:49:04;;;;;;;23.87;21.60;;;14.80;96.70;;;;;;5027406;28;20456;-78
2022/10/11 04:51:32;;;;;;;33.23;30.23;;;14.80;96.90;;;;;;5026920;28;20830;-78
2022/10/11 04:53:59;;;;;;;31.30;26.20;;;14.70;97.00;;;;;;5028617;28;20534;-78
2022/10/11 04:56:26;;;;;;;29.97;26.80;;;14.80;97.00;;;;;;5028119;28;20814;-78
2022/10/11 04:58:53;;;;;;;39.03;35.47;;;14.90;96.70;;;;;;5027076;28;20464;-78
2022/10/11 05:01:20;;;;;;;40.10;34.27;;;14.90;96.60;;;;;;5022138;28;20482;-75
2022/10/11 05:03:47;;;;;;;40.63;35.30;;;14.80;96.80;;;;;;5025310;28;20575;-73
2022/10/11 05:06:16;;;;;;;36.43;30.27;;;14.80;96.70;;;;;;5027054;28;21556;-75
2022/10/11 05:08:43;;;;;;;32.73;29.10;;;14.70;97.00;;;;;;5028543;28;21007;-77
2022/10/11 05:11:13;;;;;;;34.97;31.43;;;14.70;97.50;;;;;;5019442;28;21021;-77
2022/10/11 05:13:40;;;;;;;28.20;25.30;;;14.70;97.40;;;;;;5028182;28;20475;-78
2022/10/11 05:16:07;;;;;;;36.60;27.00;;;14.80;97.10;;;;;;5028553;28;20462;-78
2022/10/11 05:18:35;;;;;;;36.23;32.53;;;14.80;97.10;;;;;;5026242;28;20463;-77
2022/10/11 05:21:04;;;;;;;40.67;36.73;;;14.80;97.20;;;;;;5024903;28;20456;-78
2022/10/11 05:23:34;;;;;;;35.83;31.98;;;14.80;97.00;;;;;;5023880;28;20831;-78
2022/10/11 05:26:01;;;;;;;33.83;28.60;;;14.90;96.90;;;;;;5022104;28;20197;-78
2022/10/11 05:28:29;;;;;;;34.30;28.00;;;14.90;96.40;;;;;;5026590;28;20742;-78
2022/10/11 05:30:55;;;;;;;44.33;40.53;;;14.90;96.10;;;;;;5015735;28;20531;-79
2022/10/11 05:33:23;;;;;;;35.37;31.97;;;14.80;96.70;;;;;;5026505;28;22391;-79
2022/10/11 05:35:50;;;;;;;38.03;34.20;;;14.90;96.50;;;;;;5030683;28;20982;-83
2022/10/11 05:38:17;;;;;;;34.75;30.90;;;14.90;96.20;;;;;;5029952;28;20971;-78
2022/10/11 05:40:46;;;;;;;37.20;29.30;;;15.00;96.40;;;;;;5043578;28;20193;-79
2022/10/11 05:43:13;;;;;;;33.97;30.73;;;14.90;96.20;;;;;;5030448;28;20464;-79
2022/10/11 05:45:41;;;;;;;40.50;36.20;;;14.80;97.00;;;;;;5014512;28;20535;-79
2022/10/11 05:48:08;;;;;;;36.50;27.77;;;14.90;96.30;;;;;;5028573;28;20476;-79
2022/10/11 05:50:36;;;;;;;39.60;36.30;;;14.90;96.00;;;;;;5032433;28;20460;-78
2022/10/11 05:53:04;;;;;;;29.13;26.30;;;14.90;95.70;;;;;;5029594;28;20484;-78
2022/10/11 05:58:30;;;;;;;31.67;27.57;;;14.80;95.60;;;;;;5031298;28;20475;-78
2022/10/11 06:00:57;;;;;;;40.00;36.37;;;14.70;95.80;;;;;;5030773;28;20544;-78
2022/10/11 06:03:24;;;;;;;43.37;39.77;;;14.60;96.10;;;;;;5021121;28;20484;-78
2022/10/11 06:05:51;;;;;;;44.60;41.00;;;14.70;96.30;;;;;;5030097;28;20543;-78
2022/10/11 06:08:18;;;;;;;36.43;32.70;;;14.80;95.90;;;;;;5027445;28;20443;-79
2022/10/11 06:10:45;;;;;;;28.90;25.77;;;14.80;95.70;;;;;;5030986;28;20848;-79
2022/10/11 06:13:12;;;;;;;36.40;28.60;;;14.90;95.30;;;;;;5035748;28;20527;-79
2022/10/11 06:15:40;;;;;;;42.00;38.60;;;14.80;95.50;;;;;;5032066;28;20519;-79
2022/10/11 06:18:07;;;;;;;37.57;33.70;;;14.80;95.80;;;;;;5035706;28;20483;-79
2022/10/11 06:20:34;;;;;;;35.63;31.87;;;14.80;95.30;;;;;;5035240;28;20471;-79
2022/10/11 06:23:01;;;;;;;33.17;29.93;;;14.80;95.70;;;;;;5033130;28;20486;-79
2022/10/11 06:25:28;;;;;;;30.43;26.90;;;14.80;95.80;;;;;;5036037;28;20583;-79
2022/10/11 06:27:55;;;;;;;33.13;27.90;;;14.80;95.40;;;;;;5035759;28;20559;-79
2022/10/11 06:30:23;;;;;;;29.37;26.27;;;14.90;95.10;;;;;;5035347;28;20465;-79
2022/10/11 06:32:51;;;;;;;45.13;41.10;;;14.80;94.90;;;;;;5031073;28;20621;-79
2022/10/11 06:35:18;;;;;;;38.30;34.83;;;14.90;94.90;;;;;;5033955;28;20483;-78
2022/10/11 06:37:45;;;;;;;35.50;31.80;;;14.90;94.80;;;;;;5033894;28;20545;-79
2022/10/11 06:40:12;;;;;;;45.23;41.33;;;14.80;94.80;;;;;;5032146;28;20547;-78
2022/10/11 06:42:39;;;;;;;31.63;28.63;;;14.70;94.70;;;;;;5028941;28;20475;-74
2022/10/11 06:45:07;;;;;;;30.53;27.53;;;14.90;94.90;;;;;;5031438;28;20575;-74
2022/10/11 06:47:34;;;;;;;41.60;37.37;;;14.90;94.40;;;;;;5031154;28;20459;-74
2022/10/11 06:50:04;;;;;;;28.80;25.87;;;14.70;94.70;;;;;;5031226;28;20551;-74
2022/10/11 06:52:31;;;;;;;33.90;30.47;;;14.70;95.20;;;;;;5029052;28;20460;-75
2022/10/11 06:54:58;;;;;;;31.77;27.40;;;14.70;95.40;;;;;;5032416;28;20522;-78
2022/10/11 06:57:25;;;;;;;42.30;38.40;;;14.80;95.50;;;;;;5033768;28;20691;-86
2022/10/11 06:59:52;;;;;;;32.63;29.20;;;14.80;95.20;;;;;;5034375;28;20483;-81
2022/10/11 07:02:19;;;;;;;39.30;35.50;;;14.90;94.90;;;;;;5027823;28;20463;-83
2022/10/11 07:04:45;;;;;;;32.03;28.70;;;14.90;94.80;;;;;;5024255;28;20507;-85
2022/10/11 07:07:14;;;;;;;29.90;27.27;;;15.00;94.40;;;;;;5033783;28;20488;-84
2022/10/11 07:09:41;;;;;;;34.67;30.97;;;15.00;93.80;;;;;;5033288;28;20452;-85
2022/10/11 07:12:08;;;;;;;30.60;27.57;;;14.90;94.40;;;;;;5031796;28;21048;-83
2022/10/11 07:14:40;;;;;;;36.30;29.93;;;14.90;94.60;;;;;;5032045;28;20502;-88
2022/10/11 07:17:20;;;;;;;40.13;36.77;;;14.80;94.70;;;;;;5034023;28;20896;-90
2022/10/11 07:19:47;;;;;;;41.10;37.80;;;14.80;94.40;;;;;;5034188;28;20554;-88
2022/10/11 07:22:24;;;;;;;29.30;26.40;;;14.70;95.00;;;;;;5034065;28;20487;-89
2022/10/11 07:25:03;;;;;;;34.70;31.20;;;14.70;94.70;;;;;;5024935;28;20877;-90
2022/10/11 07:30:43;;;;;;;41.00;37.03;;;14.70;94.90;;;;;;5011507;28;20452;-89
2022/10/11 07:33:13;;;;;;;45.40;41.43;;;14.80;95.00;;;;;;5032312;28;20534;-89
2022/10/11 07:35:50;;;;;;;42.67;38.93;;;14.80;94.70;;;;;;5031707;28;20554;-89
2022/10/11 07:38:34;;;;;;;35.50;32.30;;;14.80;94.40;;;;;;5025990;28;20570;-90
2022/10/11 07:41:28;;;;;;;35.80;32.60;;;14.90;94.60;;;;;;5009705;28;20452;-89
2022/10/11 07:43:55;;;;;;;32.73;29.43;;;14.90;94.70;;;;;;5036514;28;20495;-80
2022/10/11 07:46:22;;;;;;;45.50;41.57;;;15.00;94.00;;;;;;5029666;28;20455;-78
2022/10/11 07:48:49;;;;;;;40.33;36.33;;;15.10;93.60;;;;;;5031061;28;20535;-78
2022/10/11 07:51:20;;;;;;;36.27;32.73;;;15.20;93.10;;;;;;5031158;28;20452;-80
2022/10/11 07:53:49;;;;;;;33.43;30.33;;;15.10;93.20;;;;;;5031272;28;20546;-77
2022/10/11 07:56:19;;;;;;;38.83;35.30;;;15.10;93.50;;;;;;5030527;28;20554;-79
2022/10/11 07:58:51;;;;;;;31.47;28.20;;;15.10;93.20;;;;;;5035236;28;20559;-80
2022/10/11 08:01:18;;;;;;;44.87;41.00;;;15.10;92.90;;;;;;5039631;28;20468;-80
2022/10/11 08:03:50;;;;;;;35.50;32.23;;;15.20;92.80;;;;;;5039677;28;20480;-80
2022/10/11 08:06:20;;;;;;;31.10;27.80;;;15.20;92.60;;;;;;5027752;28;20588;-78
2022/10/11 08:08:51;;;;;;;32.60;29.40;;;15.30;92.60;;;;;;5029851;28;20578;-80
2022/10/11 08:11:22;;;;;;;41.47;37.67;;;15.30;92.50;;;;;;5038794;28;20471;-83
2022/10/11 08:13:49;;;;;;;36.67;33.43;;;15.20;92.50;;;;;;5026673;28;20481;-84
2022/10/11 08:16:16;;;;;;;38.07;34.80;;;15.10;92.90;;;;;;5038496;28;20445;-83
2022/10/11 08:18:44;;;;;;;38.57;35.40;;;15.00;92.80;;;;;;5045087;28;20476;-85
2022/10/11 08:21:13;;;;;;;34.93;31.63;;;15.00;93.20;;;;;;5047847;28;20455;-84
2022/10/11 08:23:40;;;;;;;43.37;39.90;;;15.10;93.30;;;;;;5037462;28;21080;-78
2022/10/11 08:26:09;;;;;;;32.13;28.80;;;15.20;93.10;;;;;;5028468;28;20803;-78
2022/10/11 08:28:36;;;;;;;41.43;38.33;;;15.10;92.70;;;;;;5025946;28;20452;-78
2022/10/11 08:31:04;;;;;;;36.47;33.50;;;15.20;92.40;;;;;;5029029;28;20829;-75
2022/10/11 08:33:31;;;;;;;41.43;38.20;;;15.20;92.50;;;;;;5030024;28;20502;-77
2022/10/11 08:35:58;;;;;;;43.57;39.03;;;15.00;92.60;;;;;;5029116;28;20542;-77
2022/10/11 08:38:25;;;;;;;34.07;29.50;;;15.10;93.00;;;;;;5028821;28;20579;-76
2022/10/11 08:40:55;;;;;;;31.73;28.87;;;15.20;92.40;;;;;;5030237;28;20492;-76
2022/10/11 08:43:44;;;;;;;33.13;26.50;;;15.40;92.20;;;;;;5029384;28;20464;-77
2022/10/11 08:46:14;;;;;;;36.53;33.50;;;15.60;91.00;;;;;;5015231;28;20548;-76
2022/10/11 08:48:43;;;;;;;31.57;28.37;;;15.70;90.80;;;;;;5025023;28;20463;-76
2022/10/11 08:51:16;;;;;;;31.37;28.40;;;15.70;90.60;;;;;;5030272;28;20463;-76
2022/10/11 08:53:49;;;;;;;42.00;38.30;;;15.70;90.30;;;;;;5029314;28;20525;-77
2022/10/11 08:56:17;;;;;;;31.93;29.17;;;15.80;90.00;;;;;;5029500;28;20459;-77
2022/10/11 08:58:51;;;;;;;36.63;30.57;;;15.80;89.70;;;;;;5025369;28;21019;-77
2022/10/11 09:01:21;;;;;;;38.50;35.30;;;15.80;89.70;;;;;;5028196;28;20542;-77
2022/10/11 09:03:49;;;;;;;48.23;44.57;;;15.80;90.00;;;;;;5029351;28;20484;-77
2022/10/11 09:06:37;;;;;;;33.53;30.93;;;15.70;90.10;;;;;;5029099;28;20487;-77
2022/10/11 09:09:31;;;;;;;35.10;32.40;;;15.70;90.20;;;;;;5027375;28;20547;-77
2022/10/11 09:12:11;;;;;;;41.60;37.50;;;15.60;90.30;;;;;;5022245;28;20544;-76
2022/10/11 09:14:58;;;;;;;38.40;34.93;;;15.40;91.30;;;;;;5030012;28;20849;-76
2022/10/11 09:17:40;;;;;;;40.30;36.50;;;15.40;91.30;;;;;;5025893;28;20460;-77
2022/10/11 09:20:37;;;;;;;33.57;30.37;;;15.30;92.20;;;;;;5018998;28;20590;-77
2022/10/11 09:23:11;;;;;;;46.63;42.93;;;15.50;91.70;;;;;;5028342;28;20460;-77
2022/10/11 09:25:49;;;;;;;35.53;32.17;;;15.50;91.40;;;;;;5028534;28;21024;-77
2022/10/11 09:28:22;;;;;;;35.63;32.10;;;15.50;90.80;;;;;;5022271;28;20506;-77
2022/10/11 09:30:54;;;;;;;35.23;31.53;;;15.60;90.70;;;;;;5027555;28;20984;-77
2022/10/11 09:33:29;;;;;;;39.80;36.10;;;15.50;90.50;;;;;;5026937;28;20531;-77
2022/10/11 09:35:57;;;;;;;37.83;34.60;;;15.50;91.00;;;;;;5028903;28;20498;-77
2022/10/11 09:38:35;;;;;;;41.93;37.70;;;15.70;90.60;;;;;;5027038;28;20486;-77
2022/10/11 09:41:09;;;;;;;47.27;43.37;;;15.50;90.70;;;;;;5029634;28;21084;-76
2022/10/11 09:43:36;;;;;;;36.37;32.47;;;15.40;91.50;;;;;;5027483;28;20531;-77
2022/10/11 09:46:17;;;;;;;33.70;30.40;;;15.40;91.60;;;;;;5020810;28;20460;-75
2022/10/11 09:48:44;;;;;;;33.50;30.30;;;15.50;91.70;;;;;;5013902;28;20820;-78
2022/10/11 09:51:16;;;;;;;46.87;43.07;;;15.50;90.70;;;;;;5029465;28;20822;-79
2022/10/11 09:53:53;;;;;;;35.97;32.67;;;15.60;90.30;;;;;;5028881;28;20478;-78
2022/10/11 09:56:21;;;;;;;41.00;37.27;;;15.60;90.30;;;;;;5027994;28;20451;-77
2022/10/11 09:58:48;;;;;;;35.20;29.93;;;15.60;90.30;;;;;;5024918;28;20475;-78
2022/10/11 10:01:27;;;;;;;46.43;42.33;;;15.60;90.50;;;;;;5028348;28;22213;-77
2022/10/11 10:04:05;;;;;;;45.50;41.27;;;15.70;90.00;;;;;;5020712;28;20479;-78
2022/10/11 10:06:32;;;;;;;41.13;36.77;;;15.50;90.20;;;;;;5012317;28;20607;-78
2022/10/11 10:09:20;;;;;;;36.37;32.90;;;15.50;90.40;;;;;;5026692;28;20455;-78
2022/10/11 10:11:47;;;;;;;43.33;39.77;;;15.70;90.10;;;;;;5024744;28;20535;-78
2022/10/11 10:14:21;;;;;;;37.83;34.20;;;15.80;89.90;;;;;;5027164;28;20562;-78
2022/10/11 10:17:00;;;;;;;37.77;34.00;;;16.00;88.80;;;;;;5030087;28;20510;-78
2022/10/11 10:19:28;;;;;;;46.53;41.67;;;15.90;88.90;;;;;;5029406;28;20481;-78
2022/10/11 10:21:56;;;;;;;35.83;32.57;;;15.70;89.70;;;;;;5024153;28;20852;-78
2022/10/11 10:24:36;;;;;;;39.97;34.53;;;15.80;89.70;;;;;;5027447;28;20468;-79
2022/10/11 10:27:16;;;;;;;35.77;32.50;;;15.90;89.30;;;;;;5032743;28;20482;-78
2022/10/11 10:29:44;;;;;;;37.27;33.53;;;16.00;89.10;;;;;;5029793;28;20460;-78
2022/10/11 10:32:14;;;;;;;37.33;33.53;;;15.80;88.90;;;;;;5030276;28;20555;-79
2022/10/11 10:34:52;;;;;;;47.83;43.57;;;15.80;89.50;;;;;;5030862;28;20901;-78
2022/10/11 10:37:26;;;;;;;34.73;31.97;;;15.80;89.30;;;;;;5032590;28;20550;-77
2022/10/11 10:39:56;;;;;;;39.10;35.33;;;15.90;89.70;;;;;;5031142;28;20511;-78
2022/10/11 10:42:23;;;;;;;39.80;36.13;;;16.00;89.30;;;;;;5032486;28;20464;-78
2022/10/11 10:44:55;;;;;;;37.03;33.47;;;16.10;88.80;;;;;;5022044;28;20480;-78
2022/10/11 10:47:46;;;;;;;43.07;38.63;;;16.10;88.40;;;;;;5025714;28;20490;-77
2022/10/11 10:50:19;;;;;;;36.10;32.63;;;16.20;88.40;;;;;;5029164;28;20535;-76
2022/10/11 10:53:01;;;;;;;46.60;42.17;;;16.30;87.20;;;;;;5034607;28;20448;-78
2022/10/11 10:55:38;;;;;;;36.53;33.00;;;16.20;87.70;;;;;;5037517;28;20471;-80
2022/10/11 10:58:16;;;;;;;36.90;33.17;;;16.00;88.20;;;;;;5033324;28;20449;-81
2022/10/11 11:00:46;;;;;;;37.73;34.13;;;16.10;88.40;;;;;;5050514;28;20464;-81
2022/10/11 11:03:22;;;;;;;37.60;33.40;;;16.20;87.90;;;;;;5049639;28;20531;-81
2022/10/11 11:06:01;;;;;;;41.03;37.30;;;16.30;87.70;;;;;;5036595;28;20464;-81
2022/10/11 11:08:47;;;;;;;38.93;34.77;;;16.40;87.30;;;;;;5037654;28;20502;-81
2022/10/11 11:11:31;;;;;;;36.73;32.73;;;16.50;86.40;;;;;;5035329;28;20464;-80
2022/10/11 11:14:03;;;;;;;43.23;39.03;;;16.60;86.20;;;;;;5036310;28;21004;-80
2022/10/11 11:16:37;;;;;;;36.73;33.47;;;16.70;85.80;;;;;;5039223;28;20455;-81
2022/10/11 11:19:13;;;;;;;47.93;44.53;;;16.70;85.70;;;;;;5024066;28;20483;-81
2022/10/11 11:21:48;;;;;;;37.20;33.83;;;16.70;85.40;;;;;;5035675;28;20502;-80
2022/10/11 11:24:26;;;;;;;42.37;38.87;;;16.70;85.20;;;;;;5035841;28;21099;-81
2022/10/11 11:26:58;;;;;;;44.97;41.20;;;16.60;85.50;;;;;;5027800;28;20459;-79
2022/10/11 11:29:38;;;;;;;42.43;38.93;;;16.60;85.90;;;;;;5025854;28;20927;-80
2022/10/11 11:32:20;;;;;;;56.53;51.13;;;16.60;86.20;;;;;;5031160;28;20548;-81
2022/10/11 11:34:53;;;;;;;37.10;33.97;;;16.40;87.10;;;;;;5031391;28;20568;-81
2022/10/11 11:37:26;;;;;;;42.03;37.73;;;16.30;86.40;;;;;;5036787;28;20957;-80
2022/10/11 11:39:58;;;;;;;36.83;33.57;;;16.20;87.30;;;;;;5031457;28;20483;-79
2022/10/11 11:42:30;;;;;;;57.17;52.83;;;16.30;87.20;;;;;;5042703;28;20490;-81
2022/10/11 11:45:05;;;;;;;34.83;31.83;;;16.40;86.60;;;;;;5047737;28;20546;-81
2022/10/11 11:47:35;;;;;;;51.87;48.07;;;16.40;86.60;;;;;;5044467;28;20610;-80
2022/10/11 11:50:21;;;;;;;40.00;37.13;;;16.40;86.30;;;;;;5031968;28;20480;-81
2022/10/11 11:52:52;;;;;;;35.20;32.03;;;16.30;86.60;;;;;;5037760;28;20468;-81
2022/10/11 11:55:27;;;;;;;41.33;38.00;;;16.20;87.10;;;;;;5030777;28;20576;-80
2022/10/11 11:58:04;;;;;;;41.17;38.13;;;16.30;87.00;;;;;;5039916;28;20443;-80
2022/10/11 12:00:37;;;;;;;37.53;34.30;;;16.40;86.50;;;;;;5037264;28;20662;-80
2022/10/11 12:03:10;;;;;;;40.40;37.60;;;16.50;85.80;;;;;;5017882;28;20464;-80
2022/10/11 12:05:59;;;;;;;43.30;39.90;;;16.60;85.30;;;;;;5025142;28;20503;-80
2022/10/11 12:08:37;;;;;;;33.53;30.97;;;16.70;84.90;;;;;;5036381;28;20454;-80
2022/10/11 12:11:05;;;;;;;37.13;34.40;;;16.80;84.30;;;;;;5031285;28;20456;-80
2022/10/11 12:13:35;;;;;;;57.60;53.57;;;16.90;83.70;;;;;;5037444;28;20463;-80
2022/10/11 12:16:10;;;;;;;43.03;39.93;;;17.10;83.10;;;;;;5033880;28;20459;-81
2022/10/11 12:18:49;;;;;;;35.60;32.90;;;17.20;81.00;;;;;;5031684;28;20478;-80
2022/10/11 12:21:22;;;;;;;33.07;30.53;;;17.20;80.90;;;;;;5034626;28;20523;-80
2022/10/11 12:23:50;;;;;;;37.67;34.53;;;17.20;81.30;;;;;;5038112;28;20568;-80
2022/10/11 12:26:40;;;;;;;44.83;41.60;;;17.20;81.70;;;;;;5033317;28;20461;-81
2022/10/11 12:29:44;;;;;;;41.17;38.37;;;17.10;82.10;;;;;;5030256;28;20446;-81
2022/10/11 12:32:48;;;;;;;47.73;44.47;;;17.00;82.70;;;;;;5028789;28;20524;-81
2022/10/11 12:35:54;;;;;;;43.27;40.40;;;16.80;82.40;;;;;;5033360;28;20487;-80
2022/10/11 12:38:27;;;;;;;49.93;46.77;;;16.80;82.90;;;;;;5033529;28;20462;-80
2022/10/11 12:40:56;;;;;;;47.60;44.30;;;16.80;82.80;;;;;;5037291;28;20467;-81
2022/10/11 12:43:36;;;;;;;47.87;44.20;;;16.80;83.60;;;;;;5040442;28;20460;-80
2022/10/11 12:46:41;;;;;;;42.60;39.73;;;16.70;83.70;;;;;;5042596;28;20911;-81
2022/10/11 12:49:29;;;;;;;34.33;31.53;;;16.70;84.00;;;;;;5041778;28;20540;-80
2022/10/11 12:52:00;;;;;;;50.47;47.43;;;16.60;83.50;;;;;;5030203;28;20529;-80
2022/10/11 12:55:03;;;;;;;38.53;35.10;;;16.50;84.20;;;;;;5041687;28;20472;-80
2022/10/11 12:58:00;;;;;;;35.03;32.33;;;16.30;84.60;;;;;;5041118;28;20535;-80